Time;durP1;ratioP1;P1;durP2;ratioP2;P2;SDS_P1;SDS_P2;PMS_P1;PMS_P2;Temp;Humidity;BMP_temperature;BMP_pressure;BME280_temperature;BME280_humidity;BME280_pressure;Samples;Min_cycle;Max_cycle;Signal;HPM_P1;HPM_P2
2021/05/12 00:02:26;;;;;;;1999.90;999.90;;;11.20;99.90;;;;;;5056124;28;20287;-42
2021/05/12 00:04:53;;;;;;;1999.90;999.90;;;11.20;99.90;;;;;;5056166;28;20498;-42
2021/05/12 00:07:20;;;;;;;1999.90;999.90;;;11.10;99.90;;;;;;5056156;28;20192;-42
2021/05/12 00:09:47;;;;;;;1999.90;999.90;;;11.10;99.90;;;;;;5056030;28;20231;-44
2021/05/12 00:12:13;;;;;;;1999.90;999.90;;;11.10;99.90;;;;;;5056030;28;20173;-44
2021/05/12 00:14:41;;;;;;;1999.90;999.90;;;11.00;99.90;;;;;;5055929;28;20712;-43
2021/05/12 00:17:10;;;;;;;1999.90;999.90;;;10.90;99.90;;;;;;5055843;28;20231;-44
2021/05/12 00:19:38;;;;;;;1999.90;999.90;;;10.90;99.90;;;;;;5056185;28;20173;-43
2021/05/12 00:24:40;;;;;;;1999.90;999.90;;;10.90;99.90;;;;;;5055837;28;20158;-44
2021/05/12 00:27:07;;;;;;;1999.90;999.90;;;10.80;99.90;;;;;;5055543;28;20665;-43
2021/05/12 00:29:35;;;;;;;1999.90;999.90;;;10.90;99.90;;;;;;5055975;28;20172;-42
2021/05/12 00:32:02;;;;;;;1999.90;999.90;;;11.00;99.90;;;;;;5055785;28;20226;-43
2021/05/12 00:34:29;;;;;;;1999.90;999.90;;;11.00;99.90;;;;;;5055680;28;20238;-42
2021/05/12 00:36:56;;;;;;;1999.90;999.90;;;11.10;99.90;;;;;;5055585;28;20165;-42
2021/05/12 00:39:22;;;;;;;1999.90;999.90;;;11.10;99.90;;;;;;5055454;28;20176;-42
2021/05/12 00:41:49;;;;;;;1999.90;999.90;;;11.10;99.90;;;;;;5055443;28;20309;-44
2021/05/12 00:44:19;;;;;;;1999.90;999.90;;;11.10;99.90;;;;;;5055443;28;20244;-43
2021/05/12 00:46:51;;;;;;;1999.90;999.90;;;11.10;99.90;;;;;;5055399;28;20172;-42
2021/05/12 00:49:18;;;;;;;1999.90;999.90;;;11.00;99.90;;;;;;5055356;28;20169;-43
2021/05/12 00:51:46;;;;;;;1999.90;999.90;;;11.00;99.90;;;;;;5055367;28;20166;-43
2021/05/12 00:54:13;;;;;;;1999.90;999.90;;;11.00;99.90;;;;;;5055209;28;20173;-42
2021/05/12 00:56:43;;;;;;;1999.90;999.90;;;11.00;99.90;;;;;;5055327;28;20505;-44
2021/05/12 00:59:10;;;;;;;1999.90;999.90;;;10.90;99.90;;;;;;5055136;28;20181;-44
2021/05/12 01:01:38;;;;;;;1999.90;999.90;;;10.80;99.90;;;;;;5055073;28;20660;-43
2021/05/12 01:04:07;;;;;;;1999.90;999.90;;;10.90;99.90;;;;;;5055160;28;20628;-43
2021/05/12 01:06:37;;;;;;;1999.90;999.90;;;10.90;99.90;;;;;;5054932;28;20172;-43
2021/05/12 01:09:09;;;;;;;1999.90;999.90;;;10.90;99.90;;;;;;5055008;28;20687;-43
2021/05/12 01:11:37;;;;;;;1999.90;999.90;;;10.80;99.90;;;;;;5055044;28;20218;-43
2021/05/12 01:14:05;;;;;;;1999.90;999.90;;;10.70;99.90;;;;;;5054874;28;20742;-41
2021/05/12 01:16:32;;;;;;;1999.90;999.90;;;10.70;99.90;;;;;;5054812;28;20636;-50
2021/05/12 01:18:58;;;;;;;1999.90;999.90;;;10.70;99.90;;;;;;5054759;28;20177;-43
2021/05/12 01:21:25;;;;;;;1999.90;999.90;;;10.80;99.90;;;;;;5054657;28;20693;-42
2021/05/12 01:23:52;;;;;;;1999.90;999.90;;;10.70;99.90;;;;;;5054764;28;20197;-42
2021/05/12 01:26:23;;;;;;;1999.90;999.90;;;10.70;99.90;;;;;;5054702;28;20173;-42
2021/05/12 01:28:52;;;;;;;1999.90;999.90;;;10.70;99.90;;;;;;5054489;28;20220;-43
2021/05/12 01:31:34;;;;;;;1999.90;999.90;;;10.70;99.90;;;;;;5054549;28;20168;-42
2021/05/12 01:34:04;;;;;;;1999.90;999.90;;;10.70;99.90;;;;;;5054562;28;20191;-42
2021/05/12 01:36:32;;;;;;;1999.90;999.90;;;10.70;99.90;;;;;;5054467;28;20736;-42
2021/05/12 01:38:59;;;;;;;1999.90;999.90;;;10.60;99.90;;;;;;5054758;28;20537;-42
2021/05/12 01:41:27;;;;;;;1999.90;999.90;;;10.60;99.90;;;;;;5054243;28;20189;-43
2021/05/12 01:43:56;;;;;;;1999.90;999.90;;;10.50;99.90;;;;;;5054353;28;20191;-42
2021/05/12 01:46:23;;;;;;;1999.90;999.90;;;10.50;99.90;;;;;;5054187;28;20212;-42
2021/05/12 01:48:50;;;;;;;1999.90;999.90;;;10.40;99.90;;;;;;5052973;28;20181;-43
2021/05/12 01:51:18;;;;;;;1999.90;999.90;;;10.40;99.90;;;;;;5054177;28;20211;-43
2021/05/12 01:53:45;;;;;;;1999.90;999.90;;;10.40;99.90;;;;;;5054114;28;20165;-42
2021/05/12 01:56:12;;;;;;;1999.90;999.90;;;10.40;99.90;;;;;;5054177;28;20222;-44
2021/05/12 01:58:40;;;;;;;1999.90;999.90;;;10.30;99.90;;;;;;5054210;28;20165;-43
2021/05/12 02:01:07;;;;;;;1999.90;999.90;;;10.20;99.90;;;;;;5053909;28;20173;-43
2021/05/12 02:03:34;;;;;;;1999.90;999.90;;;10.20;99.90;;;;;;5053889;28;20574;-42
2021/05/12 02:06:01;;;;;;;1999.90;999.90;;;10.30;99.90;;;;;;5053817;28;20252;-43
2021/05/12 02:08:29;;;;;;;1999.90;999.90;;;10.20;99.90;;;;;;5053866;28;20173;-43
2021/05/12 02:10:59;;;;;;;1999.90;999.90;;;10.20;99.90;;;;;;5053713;28;20503;-43
2021/05/12 02:13:27;;;;;;;1999.90;999.90;;;10.20;99.90;;;;;;5053706;28;20545;-43
2021/05/12 02:15:54;;;;;;;1999.90;999.90;;;10.30;99.90;;;;;;5053645;28;20197;-43
2021/05/12 02:18:21;;;;;;;1999.90;999.90;;;10.30;99.90;;;;;;5053083;28;20173;-43
2021/05/12 02:20:48;;;;;;;1999.90;999.90;;;10.30;99.90;;;;;;5053601;28;20642;-43
2021/05/12 02:23:17;;;;;;;1999.90;999.90;;;10.40;99.90;;;;;;5053589;28;20193;-43
2021/05/12 02:25:44;;;;;;;1999.90;999.90;;;10.40;99.90;;;;;;5053621;28;20169;-43
2021/05/12 02:28:12;;;;;;;1999.90;999.90;;;10.40;99.90;;;;;;5053265;28;20286;-43
2021/05/12 02:30:40;;;;;;;1999.90;999.90;;;10.40;99.90;;;;;;5053485;28;20169;-43
2021/05/12 02:33:08;;;;;;;1999.90;999.90;;;10.40;99.90;;;;;;5053322;28;20192;-43
2021/05/12 02:35:36;;;;;;;1999.90;999.90;;;10.40;99.90;;;;;;5053376;28;20717;-43
2021/05/12 02:38:03;;;;;;;1999.90;999.90;;;10.40;99.90;;;;;;5053270;28;20205;-43
2021/05/12 02:40:31;;;;;;;1999.90;999.90;;;10.40;99.90;;;;;;5053325;28;20643;-43
2021/05/12 02:42:59;;;;;;;1999.90;999.90;;;10.20;99.90;;;;;;5053205;28;20200;-43
2021/05/12 02:45:26;;;;;;;1999.90;999.90;;;10.10;99.90;;;;;;5053181;28;20172;-43
2021/05/12 02:48:00;;;;;;;1999.90;999.90;;;10.10;99.90;;;;;;5053184;28;20165;-43
2021/05/12 02:50:39;;;;;;;1999.90;999.90;;;10.00;99.90;;;;;;5053094;28;20252;-42
2021/05/12 02:53:08;;;;;;;1999.90;999.90;;;10.00;99.90;;;;;;5053075;28;20165;-43
2021/05/12 02:55:36;;;;;;;1999.90;999.90;;;10.00;99.90;;;;;;5053006;28;20631;-43
2021/05/12 02:58:06;;;;;;;1999.90;999.90;;;10.00;99.90;;;;;;5052983;28;20223;-43
2021/05/12 03:00:34;;;;;;;1999.90;999.90;;;10.00;99.90;;;;;;5052840;28;20639;-42
2021/05/12 03:03:01;;;;;;;1999.90;999.90;;;10.00;99.90;;;;;;5052839;28;20701;-43
2021/05/12 03:05:30;;;;;;;1999.90;999.90;;;9.90;99.90;;;;;;5052971;28;20180;-42
2021/05/12 03:07:57;;;;;;;1999.90;999.90;;;9.90;99.90;;;;;;5052755;28;20598;-43
2021/05/12 03:10:26;;;;;;;1999.90;999.90;;;9.90;99.90;;;;;;5052857;28;20166;-42
2021/05/12 03:12:53;;;;;;;1999.90;999.90;;;9.90;99.90;;;;;;5052719;28;20219;-42
2021/05/12 03:15:22;;;;;;;1999.90;999.90;;;9.90;99.90;;;;;;5053013;28;20172;-42
2021/05/12 03:17:56;;;;;;;1999.90;999.90;;;9.90;99.90;;;;;;5052722;28;20175;-42
2021/05/12 03:20:25;;;;;;;1999.90;999.90;;;9.90;99.90;;;;;;5052276;28;20161;-42
2021/05/12 03:22:52;;;;;;;1999.90;999.90;;;9.90;99.90;;;;;;5052499;28;20254;-43
2021/05/12 03:25:18;;;;;;;1999.90;999.90;;;9.80;99.90;;;;;;5052681;28;20165;-44
2021/05/12 03:27:46;;;;;;;1999.90;999.90;;;9.80;99.90;;;;;;5052441;28;20212;-44
2021/05/12 03:30:17;;;;;;;1999.90;999.90;;;9.80;99.90;;;;;;5055291;28;20252;-43
2021/05/12 03:32:44;;;;;;;1999.90;999.90;;;9.80;99.90;;;;;;5056941;28;20207;-43
2021/05/12 03:35:11;;;;;;;1999.90;999.90;;;9.80;99.90;;;;;;5056537;28;20170;-42
2021/05/12 03:37:38;;;;;;;1999.90;999.90;;;9.80;99.90;;;;;;5056627;28;20169;-42
2021/05/12 03:40:06;;;;;;;1999.90;999.90;;;9.80;99.90;;;;;;5056504;28;20165;-44
2021/05/12 03:42:33;;;;;;;1999.90;999.90;;;9.80;99.90;;;;;;5056323;28;20193;-42
2021/05/12 03:45:00;;;;;;;1999.90;999.90;;;9.80;99.90;;;;;;5056383;28;20168;-43
2021/05/12 03:47:27;;;;;;;1999.90;999.90;;;9.90;99.90;;;;;;5056271;28;20168;-42
2021/05/12 03:49:54;;;;;;;1999.90;999.90;;;9.80;99.90;;;;;;5056317;28;20197;-43
2021/05/12 03:52:21;;;;;;;1999.90;999.90;;;9.90;99.90;;;;;;5056507;28;20180;-43
2021/05/12 03:54:50;;;;;;;1999.90;999.90;;;9.90;99.90;;;;;;5056496;28;20161;-44
2021/05/12 03:57:18;;;;;;;1999.90;999.90;;;9.90;99.90;;;;;;5056604;28;20516;-43
2021/05/12 03:59:45;;;;;;;1999.90;999.90;;;9.90;99.90;;;;;;5056037;28;20164;-45
2021/05/12 04:02:12;;;;;;;1999.90;999.90;;;9.70;99.90;;;;;;5055957;28;20201;-43
2021/05/12 04:04:39;;;;;;;1999.90;999.90;;;9.60;99.90;;;;;;5056102;28;20683;-44
2021/05/12 04:07:05;;;;;;;1999.90;999.90;;;9.50;99.90;;;;;;5055974;28;20172;-44
2021/05/12 04:09:33;;;;;;;1999.90;999.90;;;9.50;99.90;;;;;;5055942;28;20164;-43
2021/05/12 04:11:59;;;;;;;1999.90;999.90;;;9.40;99.90;;;;;;5056044;28;20165;-43
2021/05/12 04:14:27;;;;;;;1999.90;999.90;;;9.40;99.90;;;;;;5055035;28;20178;-45
2021/05/12 04:16:54;;;;;;;1999.90;999.90;;;9.40;99.90;;;;;;5056173;28;20165;-44
2021/05/12 04:19:21;;;;;;;1999.90;999.90;;;9.50;99.90;;;;;;5056212;28;20172;-45
2021/05/12 04:21:48;;;;;;;1999.90;999.90;;;9.60;99.90;;;;;;5056014;28;20230;-45
2021/05/12 04:24:15;;;;;;;1999.90;999.90;;;9.70;99.90;;;;;;5055785;28;20505;-44
2021/05/12 04:26:42;;;;;;;1999.90;999.90;;;9.80;99.90;;;;;;5055769;28;20168;-45
2021/05/12 04:29:09;;;;;;;1999.90;999.90;;;9.90;99.90;;;;;;5055498;28;20235;-44
2021/05/12 04:31:36;;;;;;;1999.90;999.90;;;10.00;99.90;;;;;;5055640;28;20180;-44
2021/05/12 04:34:03;;;;;;;1999.90;999.90;;;10.00;99.90;;;;;;5055563;28;20704;-44
2021/05/12 04:36:30;;;;;;;1999.90;999.90;;;10.00;99.90;;;;;;5055556;28;20218;-44
2021/05/12 04:38:57;;;;;;;1999.90;999.90;;;10.10;99.90;;;;;;5055413;28;20632;-44
2021/05/12 04:41:24;;;;;;;1999.90;999.90;;;10.10;99.90;;;;;;5054785;28;20204;-44
2021/05/12 04:43:54;;;;;;;1999.90;999.90;;;10.10;99.90;;;;;;5055428;28;20563;-43
2021/05/12 04:46:25;;;;;;;1999.90;999.90;;;10.10;99.90;;;;;;5055277;28;20174;-43
2021/05/12 04:48:55;;;;;;;1999.90;999.90;;;10.10;99.90;;;;;;5055516;28;20248;-43
2021/05/12 04:51:22;;;;;;;1999.90;999.90;;;10.10;99.90;;;;;;5055239;28;20175;-42
2021/05/12 04:53:49;;;;;;;1999.90;999.90;;;10.00;99.90;;;;;;5055266;28;20169;-42
2021/05/12 04:56:17;;;;;;;1999.90;999.90;;;9.90;99.90;;;;;;5055237;28;20651;-42
2021/05/12 04:58:43;;;;;;;1999.90;999.90;;;9.90;99.90;;;;;;5055229;28;20185;-43
2021/05/12 05:01:10;;;;;;;1999.90;999.90;;;9.90;99.90;;;;;;5055097;28;20252;-43
2021/05/12 05:03:42;;;;;;;1999.90;999.90;;;9.80;99.90;;;;;;5055019;28;20215;-44
2021/05/12 05:06:09;;;;;;;1999.90;999.90;;;9.80;99.90;;;;;;5055095;28;20168;-43
2021/05/12 05:08:36;;;;;;;1999.90;999.90;;;9.80;99.90;;;;;;5054940;28;20200;-42
2021/05/12 05:11:03;;;;;;;1999.90;999.90;;;9.80;99.90;;;;;;5054870;28;20211;-43
2021/05/12 05:13:29;;;;;;;1999.90;999.90;;;9.70;99.90;;;;;;5054968;28;20173;-43
2021/05/12 05:15:56;;;;;;;1999.90;999.90;;;9.70;99.90;;;;;;5054911;28;20244;-45
2021/05/12 05:18:23;;;;;;;1999.90;999.90;;;9.60;99.90;;;;;;5054796;28;20320;-43
2021/05/12 05:20:55;;;;;;;1999.90;999.90;;;9.60;99.90;;;;;;5055021;28;20665;-44
2021/05/12 05:23:22;;;;;;;1999.90;999.90;;;9.70;99.90;;;;;;5054650;28;20596;-43
2021/05/12 05:25:50;;;;;;;1999.90;999.90;;;9.70;99.90;;;;;;5054650;28;20173;-43
2021/05/12 05:28:17;;;;;;;1999.90;999.90;;;9.80;99.90;;;;;;5054245;28;20231;-42
2021/05/12 05:30:44;;;;;;;1999.90;999.90;;;9.80;99.90;;;;;;5054479;28;20166;-43
2021/05/12 05:33:11;;;;;;;1999.90;999.90;;;9.80;99.90;;;;;;5054352;28;20181;-43
2021/05/12 05:35:38;;;;;;;1999.90;999.90;;;9.70;99.90;;;;;;5054452;28;20628;-43
2021/05/12 05:38:05;;;;;;;1999.90;999.90;;;9.70;99.90;;;;;;5054335;28;20176;-43
2021/05/12 05:40:32;;;;;;;1999.90;999.90;;;9.70;99.90;;;;;;5054326;28;20173;-43
2021/05/12 05:43:02;;;;;;;1999.90;999.90;;;9.60;99.90;;;;;;5054264;28;20197;-43
2021/05/12 05:45:30;;;;;;;1999.90;999.90;;;9.60;99.90;;;;;;5054210;28;20238;-42
2021/05/12 05:47:58;;;;;;;1999.90;999.90;;;9.60;99.90;;;;;;5053995;28;20188;-42
2021/05/12 05:50:25;;;;;;;1999.90;999.90;;;9.60;99.90;;;;;;5053629;28;20248;-43
2021/05/12 05:52:55;;;;;;;1999.90;999.90;;;9.70;99.90;;;;;;5052890;28;20166;-43
2021/05/12 05:55:23;;;;;;;1999.90;999.90;;;9.70;99.90;;;;;;5053705;28;20204;-42
2021/05/12 05:57:50;;;;;;;1999.90;999.90;;;9.80;99.90;;;;;;5053521;28;20172;-43
2021/05/12 06:00:18;;;;;;;1999.90;999.90;;;9.80;99.90;;;;;;5053535;28;20173;-48
2021/05/12 06:02:46;;;;;;;1999.90;999.90;;;9.80;99.90;;;;;;5053516;28;20208;-47
2021/05/12 06:05:14;;;;;;;1999.90;999.90;;;10.10;99.90;;;;;;5053576;28;20172;-55
2021/05/12 06:07:41;;;;;;;1999.90;999.90;;;10.40;99.90;;;;;;5053714;28;20173;-51
2021/05/12 06:10:09;;;;;;;1999.90;999.90;;;10.60;99.90;;;;;;5053613;28;20249;-47
2021/05/12 06:12:39;;;;;;;1999.90;999.90;;;10.70;99.90;;;;;;5053852;28;20169;-39
2021/05/12 06:15:06;;;;;;;1999.90;999.90;;;10.80;99.90;;;;;;5051411;28;20264;-40
2021/05/12 06:17:33;;;;;;;1999.90;999.90;;;10.70;99.90;;;;;;5053374;28;20524;-56
2021/05/12 06:20:00;;;;;;;1999.90;999.90;;;10.60;99.90;;;;;;5052511;28;20181;-39
2021/05/12 06:22:27;;;;;;;1999.90;999.90;;;10.60;99.90;;;;;;5051866;28;20287;-48
2021/05/12 06:24:54;;;;;;;1999.90;999.90;;;10.60;99.90;;;;;;5052723;28;20192;-42
2021/05/12 06:27:21;;;;;;;1999.90;999.90;;;10.80;99.90;;;;;;5052640;28;20191;-47
2021/05/12 06:29:47;;;;;;;1999.90;999.90;;;10.80;99.90;;;;;;5052123;28;20181;-41
2021/05/12 06:32:15;;;;;;;1999.90;999.90;;;10.80;99.90;;;;;;5048934;28;20616;-42
2021/05/12 06:34:42;;;;;;;1999.90;999.90;;;10.70;99.90;;;;;;5047659;28;20179;-42
2021/05/12 06:37:09;;;;;;;1999.90;999.90;;;10.70;99.90;;;;;;5044804;28;20180;-45
2021/05/12 06:39:36;;;;;;;1999.90;999.90;;;10.70;99.90;;;;;;5047500;28;20175;-48
2021/05/12 06:42:02;;;;;;;1999.90;999.90;;;10.80;99.90;;;;;;5048161;28;20212;-45
2021/05/12 06:44:29;;;;;;;1999.90;999.90;;;10.80;99.90;;;;;;5047426;28;20256;-40
2021/05/12 06:46:56;;;;;;;1999.90;999.90;;;10.90;99.90;;;;;;5047555;28;20258;-44
2021/05/12 06:49:23;;;;;;;1999.90;999.90;;;11.00;99.90;;;;;;5047104;28;20176;-50
2021/05/12 06:51:49;;;;;;;1999.90;999.90;;;11.30;99.90;;;;;;5045791;28;20177;-46
2021/05/12 06:54:16;;;;;;;1999.90;999.90;;;11.60;99.90;;;;;;5047167;28;20300;-41
2021/05/12 06:56:43;;;;;;;1999.90;999.90;;;11.80;99.90;;;;;;5047660;28;20264;-42
2021/05/12 06:59:09;;;;;;;1999.90;999.90;;;12.00;99.90;;;;;;5046530;28;20188;-38
2021/05/12 07:01:36;;;;;;;1999.90;999.90;;;12.00;99.90;;;;;;5046797;28;20231;-39
2021/05/12 07:04:03;;;;;;;1999.90;999.90;;;12.00;99.90;;;;;;5048120;28;20184;-39
2021/05/12 07:06:30;;;;;;;1999.90;999.90;;;12.00;99.90;;;;;;5046803;28;20177;-39
2021/05/12 07:08:57;;;;;;;1999.90;999.90;;;12.00;99.90;;;;;;5047057;28;20259;-41
2021/05/12 07:11:24;;;;;;;1999.90;999.90;;;12.10;99.90;;;;;;5046315;28;20601;-45
2021/05/12 07:13:53;;;;;;;1999.90;999.90;;;12.20;99.90;;;;;;5047703;28;20177;-42
2021/05/12 07:16:20;;;;;;;1999.90;999.90;;;12.30;99.90;;;;;;5051724;28;20169;-41
2021/05/12 07:18:47;;;;;;;1999.90;999.90;;;12.40;99.90;;;;;;5051185;28;20173;-44
2021/05/12 07:21:14;;;;;;;1999.90;999.90;;;12.50;99.90;;;;;;5051065;28;20168;-44
2021/05/12 07:23:43;;;;;;;1999.90;999.90;;;12.60;99.90;;;;;;5051837;28;20176;-46
2021/05/12 07:26:11;;;;;;;1999.90;999.90;;;12.70;99.90;;;;;;5049183;28;20184;-46
2021/05/12 07:28:38;;;;;;;1999.90;999.90;;;12.70;99.90;;;;;;5048912;28;20366;-46
2021/05/12 07:31:05;;;;;;;1999.90;999.90;;;13.00;99.90;;;;;;5050690;28;20169;-46
2021/05/12 07:33:32;;;;;;;1999.90;999.90;;;13.40;99.90;;;;;;5048235;28;20173;-46
2021/05/12 07:35:59;;;;;;;1999.90;999.90;;;13.50;99.90;;;;;;5048484;28;20531;-47
2021/05/12 07:38:26;;;;;;;1999.90;999.90;;;13.50;99.90;;;;;;5051827;28;20532;-49
2021/05/12 07:40:52;;;;;;;1999.90;999.90;;;13.50;99.90;;;;;;5050641;28;20165;-50
2021/05/12 07:43:19;;;;;;;1999.90;999.90;;;13.50;99.90;;;;;;5051662;28;20193;-53
2021/05/12 07:45:46;;;;;;;1999.90;999.90;;;14.10;99.90;;;;;;5051533;28;20192;-45
2021/05/12 07:48:14;;;;;;;1999.90;999.90;;;14.40;99.90;;;;;;5050543;28;20188;-44
2021/05/12 07:50:41;;;;;;;1999.90;999.90;;;14.40;99.90;;;;;;5051546;28;20252;-50
2021/05/12 07:53:08;;;;;;;1999.90;999.90;;;14.40;99.90;;;;;;5051189;28;20173;-53
2021/05/12 07:55:36;;;;;;;1999.90;999.90;;;14.50;99.90;;;;;;5049849;28;20239;-51
2021/05/12 07:58:04;;;;;;;1999.90;999.90;;;14.60;99.90;;;;;;5049462;28;20239;-49
2021/05/12 08:00:33;;;;;;;1999.90;999.90;;;14.60;99.90;;;;;;5050670;28;20173;-47
2021/05/12 08:03:00;;;;;;;1999.90;999.90;;;14.90;99.90;;;;;;5049458;28;20239;-55
2021/05/12 08:05:27;;;;;;;1999.90;999.90;;;14.90;99.90;;;;;;5049566;28;20177;-53
2021/05/12 08:07:55;;;;;;;1999.90;999.90;;;15.50;99.90;;;;;;5049479;28;20377;-50
2021/05/12 08:10:21;;;;;;;1999.90;999.90;;;15.50;99.90;;;;;;5048541;28;20191;-53
2021/05/12 08:12:48;;;;;;;1999.90;999.90;;;15.50;99.90;;;;;;5049129;28;20168;-49
2021/05/12 08:15:15;;;;;;;1999.90;999.90;;;15.50;99.90;;;;;;5050274;28;20166;-49
2021/05/12 08:17:42;;;;;;;1999.90;999.90;;;15.60;99.90;;;;;;5052302;28;20628;-48
2021/05/12 08:20:09;;;;;;;1999.90;999.90;;;15.70;99.90;;;;;;5053162;28;20253;-46
2021/05/12 08:22:36;;;;;;;1999.90;999.90;;;15.90;99.90;;;;;;5053069;28;20291;-45
2021/05/12 08:25:02;;;;;;;1999.90;999.90;;;16.30;99.90;;;;;;5052093;28;20195;-47
2021/05/12 08:27:29;;;;;;;1999.90;999.90;;;16.40;99.90;;;;;;5052730;28;20233;-52
2021/05/12 08:30:00;;;;;;;1999.90;999.90;;;16.40;99.90;;;;;;5052690;28;20172;-50
2021/05/12 08:32:27;;;;;;;1999.90;999.90;;;16.50;99.90;;;;;;5052680;28;20162;-48
2021/05/12 08:34:57;;;;;;;1999.90;999.90;;;16.60;99.90;;;;;;5052810;28;20169;-48
2021/05/12 08:37:24;;;;;;;1999.90;999.90;;;16.60;99.90;;;;;;5052337;28;20180;-45
2021/05/12 08:39:55;;;;;;;1999.90;999.90;;;16.70;99.90;;;;;;5052099;28;20234;-47
2021/05/12 08:42:23;;;;;;;1999.90;999.90;;;16.90;99.60;;;;;;5053159;28;20237;-52
2021/05/12 08:44:51;;;;;;;1999.90;999.90;;;17.00;99.50;;;;;;5051677;28;20220;-49
2021/05/12 08:47:19;;;;;;;1999.90;999.90;;;17.10;98.50;;;;;;5053037;28;20623;-51
2021/05/12 08:49:47;;;;;;;1999.90;999.90;;;17.40;98.50;;;;;;5052850;28;20161;-38
2021/05/12 08:52:15;;;;;;;1999.90;999.90;;;17.80;97.10;;;;;;5051713;28;20165;-44
2021/05/12 08:54:42;;;;;;;1999.90;999.90;;;18.10;96.40;;;;;;5052820;28;20286;-50
2021/05/12 08:57:09;;;;;;;1999.90;999.90;;;18.10;96.00;;;;;;5052759;28;20177;-45
2021/05/12 08:59:36;;;;;;;1999.90;999.90;;;18.20;95.70;;;;;;5051672;28;20165;-52
2021/05/12 09:02:06;;;;;;;1999.90;999.90;;;18.40;95.10;;;;;;5052321;28;20683;-52
2021/05/12 09:04:35;;;;;;;1999.90;999.90;;;18.60;94.70;;;;;;5052349;28;20172;-51
2021/05/12 09:07:04;;;;;;;1999.90;999.90;;;18.70;94.10;;;;;;5051555;28;20531;-50
2021/05/12 09:09:31;;;;;;;1999.90;999.90;;;18.80;93.60;;;;;;5051657;28;20169;-48
2021/05/12 09:11:58;;;;;;;1999.90;999.90;;;19.00;92.90;;;;;;5051826;28;20250;-48
2021/05/12 09:14:34;;;;;;;1999.90;999.90;;;19.00;92.30;;;;;;5049714;28;20701;-49
2021/05/12 09:17:01;;;;;;;1999.90;999.90;;;19.20;91.60;;;;;;5051620;28;20204;-46
2021/05/12 09:19:28;;;;;;;1999.90;999.90;;;19.70;91.10;;;;;;5051067;28;20215;-47
2021/05/12 09:21:58;;;;;;;1999.90;999.90;;;19.60;90.50;;;;;;5051581;28;20537;-48
2021/05/12 09:24:26;;;;;;;1999.90;999.90;;;19.80;90.10;;;;;;5052307;28;20169;-54
2021/05/12 09:26:58;;;;;;;1999.90;999.90;;;19.60;90.10;;;;;;5051716;28;20172;-49
2021/05/12 09:29:29;;;;;;;1999.90;999.90;;;19.50;90.30;;;;;;5051033;28;20620;-50
2021/05/12 09:32:12;;;;;;;1999.90;999.90;;;19.50;91.00;;;;;;5051823;28;20659;-50
2021/05/12 09:35:02;;;;;;;1999.90;999.90;;;19.90;90.40;;;;;;5050826;28;20168;-51
2021/05/12 09:37:29;;;;;;;1999.90;999.90;;;20.20;88.50;;;;;;5050560;28;20696;-50
2021/05/12 09:39:57;;;;;;;1999.90;999.90;;;20.60;86.20;;;;;;5050920;28;20260;-51
2021/05/12 09:42:25;;;;;;;1999.90;999.90;;;20.40;84.80;;;;;;5051257;28;20223;-49
2021/05/12 09:45:21;;;;;;;1999.90;999.90;;;20.50;85.10;;;;;;5051026;28;20578;-52
2021/05/12 09:47:57;;;;;;;1999.90;999.90;;;20.60;85.10;;;;;;5050529;28;20542;-57
2021/05/12 09:50:30;;;;;;;1999.90;999.90;;;21.00;85.30;;;;;;5050194;28;20161;-57
2021/05/12 09:52:59;;;;;;;1999.90;999.90;;;21.10;82.70;;;;;;5051507;28;20162;-49
2021/05/12 09:55:47;;;;;;;1999.90;999.90;;;21.20;83.20;;;;;;5051046;28;20175;-47
2021/05/12 09:58:21;;;;;;;1999.90;999.90;;;21.00;82.40;;;;;;5051376;28;20169;-54
2021/05/12 10:00:50;;;;;;;1999.90;999.90;;;20.70;83.00;;;;;;5052496;28;20264;-49
2021/05/12 10:03:23;;;;;;;1999.90;999.90;;;21.00;82.10;;;;;;5052582;28;20205;-53
2021/05/12 10:05:57;;;;;;;1999.90;999.90;;;20.90;82.00;;;;;;5052710;28;20593;-48
2021/05/12 10:08:30;;;;;;;1999.90;999.90;;;21.20;82.70;;;;;;5053825;28;20615;-47
2021/05/12 10:11:02;;;;;;;1999.90;999.90;;;21.40;80.80;;;;;;5052666;28;20158;-44
2021/05/12 10:13:32;;;;;;;1999.90;999.90;;;21.00;80.00;;;;;;5053172;28;20171;-49
2021/05/12 10:16:00;;;;;;;1999.90;999.90;;;21.00;80.60;;;;;;5052808;28;20727;-45
2021/05/12 10:18:27;;;;;;;1999.90;999.90;;;21.00;79.80;;;;;;5052230;28;20173;-50
2021/05/12 10:20:57;;;;;;;1999.90;999.90;;;20.90;80.50;;;;;;5052464;28;20237;-45
2021/05/12 10:23:25;;;;;;;1999.90;999.90;;;21.00;81.20;;;;;;5053030;28;20254;-45
2021/05/12 10:25:53;;;;;;;1999.90;999.90;;;21.30;80.50;;;;;;5050537;28;20191;-51
2021/05/12 10:28:20;;;;;;;1999.90;999.90;;;21.50;79.10;;;;;;5052590;28;20683;-46
2021/05/12 10:30:50;;;;;;;1999.90;999.90;;;21.50;77.80;;;;;;5052780;28;20242;-58
2021/05/12 10:33:37;;;;;;;1999.90;999.90;;;21.70;79.90;;;;;;5051907;28;20215;-52
2021/05/12 10:36:10;;;;;;;1999.90;999.90;;;22.50;76.40;;;;;;5052241;28;20579;-52
2021/05/12 10:38:39;;;;;;;1999.90;999.90;;;22.90;71.70;;;;;;5051558;28;20205;-49
2021/05/12 10:41:06;;;;;;;1999.90;999.90;;;23.10;68.00;;;;;;5052198;28;20165;-47
2021/05/12 10:43:42;;;;;;;1999.90;999.90;;;22.60;68.10;;;;;;5052704;28;20216;-47
2021/05/12 10:46:17;;;;;;;1999.90;999.90;;;22.10;69.80;;;;;;5051995;28;20168;-51
2021/05/12 10:48:49;;;;;;;1999.90;999.90;;;22.20;71.30;;;;;;5052278;28;20153;-49
2021/05/12 10:51:22;;;;;;;1999.90;999.90;;;22.60;68.20;;;;;;5049984;28;20165;-45
2021/05/12 10:53:53;;;;;;;1999.90;999.90;;;22.80;66.40;;;;;;5049982;28;20609;-46
2021/05/12 10:56:32;;;;;;;1999.90;999.90;;;22.80;66.10;;;;;;5049521;28;20198;-50
2021/05/12 10:59:04;;;;;;;1999.90;999.90;;;23.00;66.60;;;;;;5050445;28;20168;-43
2021/05/12 11:01:43;;;;;;;1999.90;999.90;;;23.30;65.50;;;;;;5049526;28;20246;-44
2021/05/12 11:04:18;;;;;;;1999.90;999.90;;;23.30;65.50;;;;;;5050345;28;20184;-45
2021/05/12 11:06:45;;;;;;;1999.90;999.90;;;23.00;64.30;;;;;;5051062;28;20168;-45
2021/05/12 11:09:24;;;;;;;1999.90;999.90;;;22.90;68.20;;;;;;5050978;28;20197;-43
2021/05/12 11:12:05;;;;;;;1999.90;999.90;;;23.20;66.30;;;;;;5051701;28;20244;-43
2021/05/12 11:14:37;;;;;;;1999.90;999.90;;;23.40;63.30;;;;;;5051263;28;20744;-46
2021/05/12 11:17:14;;;;;;;1999.90;999.90;;;23.50;63.00;;;;;;5052327;28;20244;-46
2021/05/12 11:19:41;;;;;;;1999.90;999.90;;;23.60;63.00;;;;;;5052304;28;20171;-48
2021/05/12 11:22:36;;;;;;;1999.90;999.90;;;23.70;62.20;;;;;;5051273;28;20213;-48
2021/05/12 11:25:17;;;;;;;1999.90;999.90;;;23.60;61.70;;;;;;5052134;28;20689;-48
2021/05/12 11:33:29;;;;;;;1999.90;999.90;;;23.60;63.00;;;;;;5052597;28;20559;-49
2021/05/12 11:36:05;;;;;;;1999.90;999.90;;;23.80;60.60;;;;;;5051094;28;20185;-51
2021/05/12 11:38:32;;;;;;;1999.90;999.90;;;23.70;59.30;;;;;;5051709;28;20235;-45
2021/05/12 11:41:05;;;;;;;1999.90;999.90;;;23.60;58.00;;;;;;5050393;28;20184;-46
2021/05/12 11:43:47;;;;;;;1999.90;999.90;;;23.50;56.80;;;;;;5051052;28;20228;-46
2021/05/12 11:46:42;;;;;;;1999.90;999.90;;;23.40;56.90;;;;;;5051778;28;20203;-49
2021/05/12 11:49:14;;;;;;;1999.90;999.90;;;22.90;58.00;;;;;;5052046;28;20235;-48
2021/05/12 11:51:48;;;;;;;1999.90;999.90;;;23.10;60.80;;;;;;5054479;28;20169;-49
2021/05/12 11:54:20;;;;;;;1999.90;999.90;;;23.30;58.50;;;;;;5055704;28;20199;-48
2021/05/12 11:56:59;;;;;;;1999.90;999.90;;;23.50;59.10;;;;;;5055417;28;20165;-44
2021/05/12 11:59:37;;;;;;;1999.90;999.90;;;23.70;60.40;;;;;;5055811;28;20164;-47
2021/05/12 12:02:12;;;;;;;1999.90;999.90;;;23.80;60.40;;;;;;5055946;28;20274;-47
2021/05/12 12:07:08;;;;;;;1999.90;999.90;;;23.80;58.40;;;;;;5055900;28;20283;-50
2021/05/12 12:09:35;;;;;;;1999.90;999.90;;;23.80;59.70;;;;;;5055782;28;20165;-50
2021/05/12 12:12:02;;;;;;;1999.90;999.90;;;23.80;58.90;;;;;;5054587;28;20173;-52
2021/05/12 12:14:34;;;;;;;1999.90;999.90;;;23.90;58.80;;;;;;5055497;28;20650;-50
2021/05/12 12:17:01;;;;;;;1999.90;999.90;;;23.90;57.70;;;;;;5055497;28;20234;-48
2021/05/12 12:19:28;;;;;;;1999.90;999.90;;;24.10;57.10;;;;;;5054536;28;20238;-52
2021/05/12 12:21:55;;;;;;;1999.90;999.90;;;24.10;55.70;;;;;;5054938;28;20543;-40